Time;durP1;ratioP1;P1;durP2;ratioP2;P2;SDS_P1;SDS_P2;PMS_P1;PMS_P2;Temp;Humidity;BMP_temperature;BMP_pressure;BME280_temperature;BME280_humidity;BME280_pressure;Samples;Min_cycle;Max_cycle;Signal;HPM_P1;HPM_P2
2023/07/12 00:01:00;;;;;;;3.20;1.60;;;;;;;21.65;50.37;101227.59;5094362;28;20408;-46
2023/07/12 00:03:28;;;;;;;4.40;2.10;;;;;;;21.47;51.93;101219.94;5091576;28;20093;-47
2023/07/12 00:05:54;;;;;;;3.42;2.30;;;;;;;21.07;52.66;101221.44;5094751;28;20412;-47
2023/07/12 00:08:26;;;;;;;4.00;2.40;;;;;;;21.02;54.18;101218.69;5094745;28;20388;-46
2023/07/12 00:10:55;;;;;;;5.70;3.17;;;;;;;20.98;54.68;101221.13;5094889;28;20024;-47
2023/07/12 00:13:23;;;;;;;4.88;3.00;;;;;;;20.29;56.35;101215.84;5064369;28;20027;-46
2023/07/12 00:15:50;;;;;;;4.78;2.85;;;;;;;20.37;56.52;101218.06;5094323;28;20137;-45
2023/07/12 00:18:23;;;;;;;4.70;2.88;;;;;;;20.02;57.77;101216.72;5083220;28;20029;-47
2023/07/12 00:20:51;;;;;;;3.60;2.10;;;;;;;19.76;57.91;101212.16;5074604;28;20463;-49
2023/07/12 00:23:19;;;;;;;2.75;2.08;;;;;;;19.60;59.50;101208.50;5084847;28;20032;-45
2023/07/12 00:25:47;;;;;;;3.85;1.90;;;;;;;19.58;59.29;101205.16;5094806;28;20020;-48
2023/07/12 00:28:23;;;;;;;3.30;2.13;;;;;;;19.36;60.20;101207.94;5094440;28;20027;-47
2023/07/12 00:30:51;;;;;;;4.35;2.25;;;;;;;19.28;60.77;101196.72;5092978;28;20024;-47
2023/07/12 00:33:18;;;;;;;8.10;3.03;;;;;;;18.74;62.76;101189.31;5094663;28;20099;-47
2023/07/12 00:35:45;;;;;;;7.57;3.17;;;;;;;18.42;63.25;101192.63;5094439;28;20027;-49
2023/07/12 00:38:23;;;;;;;4.28;2.72;;;;;;;18.72;62.94;101200.41;5094085;28;20024;-46
2023/07/12 00:41:40;;;;;;;5.95;2.47;;;;;;;18.45;63.91;101194.03;5094742;28;20055;-49
2023/07/12 00:44:10;;;;;;;;;;;;;;;18.05;65.57;101186.97;5051814;28;20055;-49
2023/07/12 00:46:46;;;;;;;5.97;2.95;;;;;;;17.95;66.04;101189.50;5094476;28;19912;-46
2023/07/12 00:49:12;;;;;;;7.82;3.60;;;;;;;17.79;66.46;101184.91;5093936;28;20020;-47
2023/07/12 00:51:50;;;;;;;8.20;3.67;;;;;;;17.57;67.87;101184.75;5093842;28;20031;-47
2023/07/12 00:54:19;;;;;;;6.63;3.13;;;;;;;17.75;67.03;101178.31;5075901;28;20017;-47
2023/07/12 00:56:47;;;;;;;7.13;3.35;;;;;;;17.82;67.35;101182.53;5073691;28;20102;-47
2023/07/12 00:59:15;;;;;;;6.80;3.40;;;;;;;17.67;67.32;101187.66;5073165;28;20025;-50
2023/07/12 01:01:43;;;;;;;9.32;3.58;;;;;;;16.97;69.55;101190.66;5073314;28;20108;-48
2023/07/12 01:04:14;;;;;;;9.95;3.83;;;;;;;16.84;70.78;101181.75;5072993;28;20048;-47
2023/07/12 01:06:41;;;;;;;7.95;3.10;;;;;;;17.00;71.44;101179.38;5055593;28;20064;-50
2023/07/12 01:09:13;;;;;;;9.02;3.65;;;;;;;17.04;70.57;101181.34;5073213;28;20540;-49
2023/07/12 01:11:41;;;;;;;5.90;2.92;;;;;;;17.01;71.13;101186.41;5072979;28;20039;-49
2023/07/12 01:14:13;;;;;;;7.72;2.92;;;;;;;17.07;70.95;101186.28;5073210;28;20074;-49
2023/07/12 01:16:42;;;;;;;6.65;3.85;;;;;;;16.88;71.83;101187.53;5073272;28;20510;-48
2023/07/12 01:19:08;;;;;;;7.35;3.42;;;;;;;16.92;71.04;101183.25;5073014;28;20025;-47
2023/07/12 01:21:41;;;;;;;8.65;4.05;;;;;;;17.07;70.51;101186.28;5072881;28;20017;-50
2023/07/12 01:24:07;;;;;;;5.65;3.30;;;;;;;16.91;70.98;101176.22;5073059;28;20360;-50
2023/07/12 01:26:39;;;;;;;5.55;3.15;;;;;;;16.97;71.35;101186.06;5085473;28;20086;-50
2023/07/12 01:29:07;;;;;;;5.88;3.20;;;;;;;16.83;71.24;101177.41;5074006;28;20025;-49
2023/07/12 01:31:35;;;;;;;6.05;3.60;;;;;;;16.59;71.91;101182.00;5072715;28;20028;-46
2023/07/12 01:34:01;;;;;;;8.70;3.42;;;;;;;16.83;71.34;101185.53;5072850;28;20035;-49
2023/07/12 01:36:30;;;;;;;6.20;3.47;;;;;;;16.79;72.33;101183.53;5071464;28;20028;-48
2023/07/12 01:38:59;;;;;;;5.28;3.67;;;;;;;16.80;71.71;101182.47;5072644;28;20475;-46
2023/07/12 01:41:26;;;;;;;4.90;2.85;;;;;;;16.55;72.57;101188.97;5072683;28;20498;-48
2023/07/12 01:43:55;;;;;;;6.28;3.38;;;;;;;16.64;72.12;101195.63;5072699;28;20024;-49
2023/07/12 01:46:21;;;;;;;10.43;3.60;;;;;;;16.36;73.11;101195.53;5072431;28;20030;-49
2023/07/12 01:48:48;;;;;;;7.93;3.30;;;;;;;16.51;72.84;101198.59;5092581;28;20108;-49
2023/07/12 01:51:16;;;;;;;6.57;3.38;;;;;;;16.48;72.49;101199.06;5092764;28;20481;-49
2023/07/12 01:53:43;;;;;;;5.68;3.42;;;;;;;16.00;74.48;101205.53;5056983;28;20064;-49
2023/07/12 01:56:10;;;;;;;6.28;3.10;;;;;;;16.01;74.79;101204.47;5077358;28;20029;-49
2023/07/12 01:58:36;;;;;;;9.23;3.40;;;;;;;15.93;75.00;101207.47;5072309;28;20089;-47
2023/07/12 02:01:03;;;;;;;8.45;3.80;;;;;;;15.86;75.73;101200.56;5072322;28;20060;-47
2023/07/12 02:03:29;;;;;;;8.90;4.47;;;;;;;15.84;75.84;101208.91;5071973;28;20573;-49
2023/07/12 02:05:57;;;;;;;9.27;4.28;;;;;;;15.85;75.75;101199.75;5054339;28;20107;-51
2023/07/12 02:08:24;;;;;;;7.75;4.03;;;;;;;16.00;75.09;101196.59;5071882;28;20052;-49
2023/07/12 02:10:51;;;;;;;7.57;3.92;;;;;;;15.96;75.73;101192.72;5072432;28;20059;-49
2023/07/12 02:13:19;;;;;;;10.00;4.25;;;;;;;16.07;75.51;101195.41;5054315;28;20474;-46
2023/07/12 02:15:46;;;;;;;14.55;5.10;;;;;;;15.77;76.03;101192.81;5071815;28;20043;-48
2023/07/12 02:18:13;;;;;;;7.22;3.85;;;;;;;15.47;77.37;101192.81;5072050;28;20023;-47
2023/07/12 02:20:40;;;;;;;11.90;4.60;;;;;;;15.57;77.27;101190.38;5054234;28;20158;-47
2023/07/12 02:23:07;;;;;;;8.38;3.90;;;;;;;15.60;77.31;101191.78;5072059;28;20036;-47
2023/07/12 02:25:34;;;;;;;6.30;3.80;;;;;;;15.55;77.77;101197.88;5071950;28;20047;-48
2023/07/12 02:28:00;;;;;;;5.93;3.40;;;;;;;15.39;78.32;101187.75;5074264;28;20398;-46
2023/07/12 02:30:28;;;;;;;8.52;3.58;;;;;;;15.09;79.68;101189.59;5092274;28;20035;-49
2023/07/12 02:32:55;;;;;;;7.93;3.65;;;;;;;15.18;79.36;101177.47;5092420;28;20136;-47
2023/07/12 02:35:27;;;;;;;6.20;4.00;;;;;;;15.15;80.24;101188.69;5091987;28;20499;-50
2023/07/12 02:37:55;;;;;;;8.45;4.47;;;;;;;14.91;81.06;101187.75;5091850;28;20032;-50
2023/07/12 02:40:23;;;;;;;5.88;4.20;;;;;;;14.99;80.68;101190.13;5092065;28;20012;-48
2023/07/12 02:42:50;;;;;;;6.53;3.85;;;;;;;15.02;81.00;101193.19;5091897;28;20031;-49
2023/07/12 02:45:16;;;;;;;9.93;4.63;;;;;;;14.92;81.63;101195.59;5091774;28;20099;-47
2023/07/12 02:47:43;;;;;;;12.05;4.32;;;;;;;14.79;81.95;101206.56;5091202;28;20019;-48
2023/07/12 02:50:10;;;;;;;10.13;5.20;;;;;;;14.68;82.47;101200.03;5091903;28;20028;-50
2023/07/12 02:52:36;;;;;;;10.07;4.85;;;;;;;14.57;83.07;101213.44;5091880;28;20047;-48
2023/07/12 02:55:03;;;;;;;12.85;5.65;;;;;;;14.54;83.67;101203.91;5091096;28;20017;-49
2023/07/12 02:57:29;;;;;;;16.08;7.15;;;;;;;14.30;84.77;101202.06;5091455;28;20035;-48
2023/07/12 02:59:55;;;;;;;24.23;16.73;;;;;;;14.31;84.90;101199.13;5091799;28;20062;-48
2023/07/12 03:02:21;;;;;;;19.00;13.23;;;;;;;14.30;84.76;101207.44;5091998;28;20434;-52
2023/07/12 03:04:48;;;;;;;13.57;8.30;;;;;;;14.20;85.07;101205.25;5091702;28;20040;-49
2023/07/12 03:07:14;;;;;;;13.43;8.10;;;;;;;14.02;85.95;101205.22;5091366;28;20108;-46
2023/07/12 03:09:40;;;;;;;12.65;6.47;;;;;;;13.95;86.17;101210.66;5091587;28;20028;-49
2023/07/12 03:12:07;;;;;;;13.07;7.68;;;;;;;13.76;87.49;101212.44;5073606;28;20081;-50
2023/07/12 03:14:33;;;;;;;12.18;5.80;;;;;;;13.65;88.09;101213.13;5091644;28;20032;-50
2023/07/12 03:17:00;;;;;;;9.10;5.32;;;;;;;13.68;87.89;101218.09;5091255;28;20027;-50
2023/07/12 03:19:26;;;;;;;13.07;6.13;;;;;;;13.58;89.18;101215.03;5091599;28;20069;-50
2023/07/12 03:21:52;;;;;;;16.23;6.40;;;;;;;13.59;89.28;101220.19;5091463;28;20099;-47
2023/07/12 03:24:18;;;;;;;15.05;5.97;;;;;;;13.62;89.11;101222.47;5091559;28;20020;-47
2023/07/12 03:26:45;;;;;;;14.90;6.35;;;;;;;13.70;89.09;101222.19;5090484;28;20043;-49
2023/07/12 03:29:11;;;;;;;16.23;6.32;;;;;;;13.70;88.99;101229.44;5091542;28;20023;-50
2023/07/12 03:31:37;;;;;;;14.70;6.80;;;;;;;13.65;89.13;101222.03;5091308;28;20500;-46
2023/07/12 03:34:03;;;;;;;16.90;5.90;;;;;;;13.73;88.66;101216.41;5091656;28;20028;-48
2023/07/12 03:36:31;;;;;;;17.00;6.30;;;;;;;13.56;89.55;101219.81;5091383;28;20102;-50
2023/07/12 03:38:59;;;;;;;10.55;6.00;;;;;;;13.60;89.45;101207.56;5091293;28;20060;-47
2023/07/12 03:41:26;;;;;;;13.35;6.20;;;;;;;13.59;89.56;101219.38;5091282;28;20044;-49
2023/07/12 03:43:52;;;;;;;14.05;5.25;;;;;;;13.68;88.93;101229.66;5091431;28;20024;-48
2023/07/12 03:46:19;;;;;;;13.07;5.85;;;;;;;13.78;88.58;101229.19;5091387;28;20534;-50
2023/07/12 03:48:46;;;;;;;18.42;6.60;;;;;;;13.74;88.97;101222.59;5091095;28;20173;-47
2023/07/12 03:51:14;;;;;;;17.13;6.82;;;;;;;13.81;88.48;101225.22;5091212;28;20044;-48
2023/07/12 03:53:40;;;;;;;26.10;7.13;;;;;;;13.75;89.12;101226.94;5091070;28;20032;-46
2023/07/12 03:56:07;;;;;;;23.10;7.68;;;;;;;13.64;89.30;101233.81;5074219;28;20033;-46
2023/07/12 03:58:38;;;;;;;22.90;7.88;;;;;;;13.59;89.94;101227.44;5091422;28;20032;-48
2023/07/12 04:01:10;;;;;;;30.40;8.10;;;;;;;13.59;90.41;101224.75;5094920;28;20034;-47
2023/07/12 04:03:40;;;;;;;22.30;7.43;;;;;;;13.58;90.21;101234.69;5094689;28;20048;-47
2023/07/12 04:06:09;;;;;;;33.53;7.97;;;;;;;13.52;90.89;101240.13;5094851;28;20432;-49
2023/07/12 04:08:36;;;;;;;26.15;7.50;;;;;;;13.57;90.83;101241.13;5085398;28;20062;-49
2023/07/12 04:11:03;;;;;;;28.13;8.18;;;;;;;13.52;91.03;101242.81;5074482;28;20347;-46
2023/07/12 04:13:30;;;;;;;32.90;8.40;;;;;;;13.62;90.85;101243.16;5074091;28;20075;-50
2023/07/12 04:15:58;;;;;;;20.55;7.53;;;;;;;13.60;90.88;101246.06;5074262;28;20165;-51
2023/07/12 04:18:25;;;;;;;24.50;7.63;;;;;;;13.71;90.43;101247.22;5073921;28;20164;-47
2023/07/12 04:20:58;;;;;;;25.83;8.60;;;;;;;13.68;90.31;101250.38;5074417;28;20021;-46
2023/07/12 04:23:25;;;;;;;23.88;7.88;;;;;;;13.62;90.56;101249.38;5074135;28;20024;-47
2023/07/12 04:25:59;;;;;;;23.20;7.85;;;;;;;13.63;90.59;101244.81;5083052;28;20062;-49
2023/07/12 04:28:26;;;;;;;27.35;7.85;;;;;;;13.62;90.96;101243.16;5074005;28;20067;-47
2023/07/12 04:30:52;;;;;;;24.63;8.25;;;;;;;13.48;91.20;101243.22;5074099;28;20016;-48
2023/07/12 04:33:18;;;;;;;40.13;8.60;;;;;;;13.45;91.77;101243.66;5074027;28;20028;-47
2023/07/12 04:35:44;;;;;;;33.33;8.68;;;;;;;13.24;92.78;101254.72;5073931;28;20471;-49
2023/07/12 04:38:11;;;;;;;18.70;7.47;;;;;;;13.37;92.42;101260.03;5055714;28;20033;-46
2023/07/12 04:40:37;;;;;;;26.33;8.23;;;;;;;13.31;92.68;101268.13;5080575;28;20111;-46
2023/07/12 04:43:03;;;;;;;20.92;7.70;;;;;;;13.38;92.47;101275.16;5094255;28;20413;-47
2023/07/12 04:45:29;;;;;;;28.50;8.32;;;;;;;13.43;92.49;101278.00;5093999;28;20034;-46
2023/07/12 04:47:56;;;;;;;30.75;8.77;;;;;;;13.42;92.49;101281.72;5093584;28;20024;-47
2023/07/12 04:50:22;;;;;;;25.73;8.15;;;;;;;13.50;92.37;101282.53;5094022;28;20129;-46
2023/07/12 04:52:48;;;;;;;20.98;8.10;;;;;;;13.60;91.50;101286.44;5093993;28;20036;-46
2023/07/12 04:55:26;;;;;;;20.33;9.20;;;;;;;13.48;91.89;101288.94;5094039;28;20027;-46
2023/07/12 04:57:52;;;;;;;24.40;7.18;;;;;;;13.44;92.15;101287.75;5093316;28;20161;-47
2023/07/12 05:00:19;;;;;;;21.25;8.38;;;;;;;13.48;92.07;101290.81;5093949;28;20386;-49
2023/07/12 05:02:48;;;;;;;23.95;8.05;;;;;;;13.40;92.72;101296.44;5083544;28;20046;-50
2023/07/12 05:05:14;;;;;;;17.48;6.72;;;;;;;13.50;92.27;101290.63;5073710;28;20048;-49
2023/07/12 05:07:41;;;;;;;29.55;7.45;;;;;;;13.32;92.97;101289.41;5073287;28;20020;-45
2023/07/12 05:10:08;;;;;;;28.02;7.93;;;;;;;13.38;92.98;101291.28;5073421;28;20031;-44
2023/07/12 05:12:36;;;;;;;20.23;7.90;;;;;;;13.32;93.17;101302.88;5073332;28;20371;-48
2023/07/12 05:15:07;;;;;;;21.17;7.22;;;;;;;13.38;92.63;101302.03;5073056;28;20027;-47
2023/07/12 05:17:34;;;;;;;25.02;8.23;;;;;;;13.29;92.84;101307.84;5072995;28;20506;-45
2023/07/12 05:20:03;;;;;;;24.17;7.60;;;;;;;13.38;92.98;101309.25;5073250;28;20499;-46
2023/07/12 05:22:29;;;;;;;29.60;7.97;;;;;;;13.30;93.59;101317.56;5073021;28;20028;-47
2023/07/12 05:24:56;;;;;;;36.42;9.80;;;;;;;13.43;93.29;101315.63;5073012;28;20036;-46
2023/07/12 05:27:23;;;;;;;30.13;8.68;;;;;;;13.28;93.62;101312.41;5078124;28;20051;-46
2023/07/12 05:29:49;;;;;;;22.33;8.30;;;;;;;13.38;93.40;101320.88;5093049;28;20020;-47
2023/07/12 05:32:15;;;;;;;26.77;7.80;;;;;;;13.40;93.46;101324.16;5093057;28;20103;-46
2023/07/12 05:34:42;;;;;;;30.95;7.90;;;;;;;13.32;93.93;101324.38;5092860;28;20107;-45
2023/07/12 05:37:09;;;;;;;23.55;7.15;;;;;;;13.39;93.88;101325.19;5090619;28;20035;-46
2023/07/12 05:39:36;;;;;;;24.08;7.80;;;;;;;13.44;93.59;101319.19;5092877;28;20034;-46
2023/07/12 05:42:03;;;;;;;29.25;8.18;;;;;;;13.46;93.69;101325.16;5092832;28;20032;-47
2023/07/12 05:44:29;;;;;;;27.27;7.97;;;;;;;13.42;93.72;101321.25;5072779;28;20410;-47
2023/07/12 05:46:56;;;;;;;24.70;8.25;;;;;;;13.43;93.24;101321.03;5086284;28;20028;-47
2023/07/12 05:49:23;;;;;;;20.50;7.35;;;;;;;13.43;93.30;101326.41;5072497;28;20035;-47
2023/07/12 05:51:49;;;;;;;25.98;7.78;;;;;;;13.42;92.84;101314.00;5080609;28;20153;-45
2023/07/12 05:54:16;;;;;;;21.00;6.97;;;;;;;13.39;92.71;101310.94;5080127;28;20428;-47
2023/07/12 05:56:42;;;;;;;17.70;6.47;;;;;;;13.36;93.39;101312.16;5092622;28;20051;-45
2023/07/12 05:59:10;;;;;;;22.17;6.60;;;;;;;13.35;94.01;101313.22;5090154;28;20035;-45
2023/07/12 06:01:36;;;;;;;20.15;6.57;;;;;;;13.42;93.97;101307.78;5072423;28;20025;-46
2023/07/12 06:04:03;;;;;;;17.40;7.00;;;;;;;13.44;93.27;101305.75;5071995;28;20454;-46
2023/07/12 06:06:29;;;;;;;25.13;6.80;;;;;;;13.54;92.90;101306.09;5071959;28;20029;-46
2023/07/12 06:08:55;;;;;;;30.80;8.07;;;;;;;13.46;92.89;101306.34;5072054;28;20028;-48
2023/07/12 06:11:21;;;;;;;21.50;6.63;;;;;;;13.56;92.02;101304.03;5072098;28;20024;-46
2023/07/12 06:13:47;;;;;;;18.83;6.95;;;;;;;13.53;91.89;101298.25;5072130;28;20036;-46
2023/07/12 06:16:14;;;;;;;22.40;6.60;;;;;;;13.60;92.07;101302.56;5071982;28;20029;-45
2023/07/12 06:18:42;;;;;;;17.80;6.50;;;;;;;13.66;91.67;101298.19;5071909;28;20045;-46
2023/07/12 06:21:09;;;;;;;16.33;6.22;;;;;;;13.63;91.70;101296.75;5071516;28;20028;-46
2023/07/12 06:23:36;;;;;;;16.30;6.68;;;;;;;13.62;91.70;101303.16;5071960;28;20055;-46
2023/07/12 06:26:03;;;;;;;17.42;7.53;;;;;;;13.56;92.22;101303.19;5072077;28;20092;-45
2023/07/12 06:28:29;;;;;;;21.23;8.02;;;;;;;13.65;92.32;101300.03;5072401;28;20024;-47
2023/07/12 06:30:55;;;;;;;22.20;8.15;;;;;;;13.58;92.28;101298.41;5079022;28;20036;-47
2023/07/12 06:33:22;;;;;;;22.77;7.13;;;;;;;13.64;91.95;101301.06;5071475;28;20086;-47
2023/07/12 06:35:48;;;;;;;22.80;7.13;;;;;;;13.60;91.88;101304.41;5071009;28;20017;-45
2023/07/12 06:38:16;;;;;;;22.73;6.25;;;;;;;13.62;91.82;101305.03;5071105;28;20029;-45
2023/07/12 06:40:42;;;;;;;22.27;7.35;;;;;;;13.62;91.79;101297.78;5087330;28;20385;-45
2023/07/12 06:43:08;;;;;;;21.02;7.32;;;;;;;13.66;91.51;101298.19;5091441;28;20028;-46
2023/07/12 06:45:34;;;;;;;19.60;6.78;;;;;;;13.70;91.41;101312.84;5091381;28;20492;-46
2023/07/12 06:48:01;;;;;;;23.00;7.45;;;;;;;13.67;91.72;101307.91;5080646;28;20032;-46
2023/07/12 06:50:27;;;;;;;19.42;7.22;;;;;;;13.65;91.78;101307.28;5070961;28;20475;-45
2023/07/12 06:52:53;;;;;;;19.73;7.10;;;;;;;13.69;91.08;101303.94;5071346;28;20036;-46
2023/07/12 06:55:20;;;;;;;13.48;6.32;;;;;;;13.80;91.01;101299.75;5071013;28;20016;-49
2023/07/12 06:57:47;;;;;;;22.38;7.40;;;;;;;13.72;90.84;101302.72;5070660;28;20035;-46
2023/07/12 07:00:13;;;;;;;20.88;6.72;;;;;;;13.62;91.61;101302.34;5085682;28;20068;-46
2023/07/12 07:02:40;;;;;;;23.30;7.25;;;;;;;13.65;91.34;101301.91;5079785;28;20028;-49
2023/07/12 07:05:06;;;;;;;24.02;6.97;;;;;;;13.57;91.38;101299.47;5070568;28;20120;-49
2023/07/12 07:07:33;;;;;;;17.83;6.40;;;;;;;13.54;91.58;101297.19;5070756;28;20134;-48
2023/07/12 07:09:59;;;;;;;23.52;7.68;;;;;;;13.50;91.90;101304.06;5071027;28;20042;-49
2023/07/12 07:12:25;;;;;;;18.77;7.03;;;;;;;13.54;91.96;101306.09;5071044;28;20021;-46
2023/07/12 07:14:52;;;;;;;20.73;6.90;;;;;;;13.59;91.89;101313.50;5070793;28;20056;-49
2023/07/12 07:17:18;;;;;;;26.42;8.40;;;;;;;13.57;91.91;101315.59;5070974;28;20080;-48
2023/07/12 07:19:44;;;;;;;22.70;6.90;;;;;;;13.55;92.03;101306.91;5070744;28;20028;-48
2023/07/12 07:22:11;;;;;;;23.38;6.78;;;;;;;13.50;92.56;101309.44;5071013;28;20082;-50
2023/07/12 07:24:37;;;;;;;24.27;7.20;;;;;;;13.46;92.81;101307.16;5082207;28;20024;-48
2023/07/12 07:27:04;;;;;;;24.38;6.65;;;;;;;13.48;92.62;101305.06;5090772;28;20017;-50
2023/07/12 07:29:30;;;;;;;22.50;7.00;;;;;;;13.51;92.17;101305.69;5089261;28;20401;-48
2023/07/12 07:31:56;;;;;;;27.17;6.93;;;;;;;13.49;92.54;101300.53;5091033;28;20089;-50
2023/07/12 07:34:22;;;;;;;21.30;6.80;;;;;;;13.44;92.73;101309.25;5092377;28;20098;-48
2023/07/12 07:36:49;;;;;;;21.65;6.55;;;;;;;13.43;93.12;101302.19;5094837;28;20032;-49
2023/07/12 07:39:15;;;;;;;24.05;6.80;;;;;;;13.39;92.80;101313.63;5094842;28;20034;-49
2023/07/12 07:41:41;;;;;;;23.58;7.18;;;;;;;13.26;93.44;101302.91;5095102;28;20043;-48
2023/07/12 07:44:07;;;;;;;19.80;7.75;;;;;;;13.19;93.91;101308.28;5095240;28;20020;-48
2023/07/12 07:46:33;;;;;;;22.70;7.05;;;;;;;13.28;93.86;101304.34;5094497;28;20244;-48
2023/07/12 07:49:00;;;;;;;28.25;6.88;;;;;;;13.29;93.77;101311.38;5094593;28;20055;-46
2023/07/12 07:51:29;;;;;;;19.08;6.53;;;;;;;13.31;93.90;101311.16;5094604;28;20170;-46
2023/07/12 07:53:55;;;;;;;20.05;5.85;;;;;;;13.27;93.80;101305.41;5094505;28;20031;-45
2023/07/12 07:56:22;;;;;;;16.70;6.32;;;;;;;13.22;94.03;101313.25;5094215;28;20478;-47
2023/07/12 07:58:48;;;;;;;15.45;6.00;;;;;;;13.17;94.04;101319.25;5094439;28;20146;-47
2023/07/12 08:01:14;;;;;;;15.32;6.05;;;;;;;13.24;94.10;101323.78;5080250;28;20033;-46
2023/07/12 08:03:40;;;;;;;24.20;7.35;;;;;;;13.19;94.44;101322.53;5092821;28;20497;-46
2023/07/12 08:06:06;;;;;;;23.75;6.75;;;;;;;13.27;94.04;101326.03;5094118;28;20447;-45
2023/07/12 08:08:34;;;;;;;13.65;5.65;;;;;;;13.31;94.03;101321.91;5094201;28;20020;-47
2023/07/12 08:11:04;;;;;;;25.48;5.82;;;;;;;13.27;93.94;101326.03;5094151;28;20492;-48
2023/07/12 08:13:30;;;;;;;13.13;4.90;;;;;;;13.19;93.31;101330.59;5094147;28;20020;-47
2023/07/12 08:15:57;;;;;;;16.00;4.97;;;;;;;13.16;93.38;101322.16;5093968;28;20020;-49
2023/07/12 08:18:23;;;;;;;16.90;4.38;;;;;;;13.12;93.27;101326.28;5094108;28;20064;-50
2023/07/12 08:20:56;;;;;;;13.32;4.28;;;;;;;13.05;93.59;101322.78;5093469;28;20113;-46
2023/07/12 08:23:23;;;;;;;11.27;3.95;;;;;;;13.02;93.97;101324.03;5094002;28;20024;-47
2023/07/12 08:25:50;;;;;;;12.35;4.47;;;;;;;13.01;94.32;101324.25;5093888;28;20024;-48
2023/07/12 08:28:17;;;;;;;11.63;4.10;;;;;;;13.13;93.82;101325.25;5093706;28;20445;-45
2023/07/12 08:30:43;;;;;;;12.98;4.28;;;;;;;13.07;94.15;101332.28;5076258;28;20451;-48
2023/07/12 08:33:10;;;;;;;10.15;4.93;;;;;;;13.07;93.69;101332.28;5073751;28;20020;-47
2023/07/12 08:35:36;;;;;;;13.45;4.30;;;;;;;13.01;94.07;101335.00;5088138;28;20035;-47
2023/07/12 08:38:03;;;;;;;15.27;5.80;;;;;;;12.98;94.19;101333.53;5093680;28;20028;-48
2023/07/12 08:40:29;;;;;;;15.75;4.88;;;;;;;12.95;94.20;101325.91;5094048;28;20020;-49
2023/07/12 08:42:55;;;;;;;14.52;5.53;;;;;;;12.87;94.65;101328.81;5093622;28;20470;-49
2023/07/12 08:45:31;;;;;;;12.63;5.50;;;;;;;12.94;95.40;101319.72;5093482;28;20032;-46
2023/07/12 08:48:03;;;;;;;15.63;5.63;;;;;;;12.84;96.00;101324.69;5093242;28;20012;-45
2023/07/12 08:50:43;;;;;;;20.00;5.72;;;;;;;12.80;96.48;101326.13;5093744;28;20031;-46
2023/07/12 08:53:12;;;;;;;12.20;4.93;;;;;;;12.88;96.43;101325.94;5093765;28;20528;-45
2023/07/12 08:55:39;;;;;;;16.17;5.60;;;;;;;12.85;97.07;101320.97;5093817;28;20059;-47
2023/07/12 08:58:24;;;;;;;15.43;5.28;;;;;;;12.95;96.72;101312.47;5093410;28;20081;-50
2023/07/12 09:01:07;;;;;;;14.10;4.80;;;;;;;12.85;96.15;101315.59;5091948;28;20028;-48
2023/07/12 09:03:33;;;;;;;12.15;4.63;;;;;;;12.85;96.41;101326.34;5079404;28;20067;-48
2023/07/12 09:06:00;;;;;;;11.77;4.78;;;;;;;12.88;96.16;101331.31;5072543;28;20029;-46
2023/07/12 09:08:36;;;;;;;15.55;4.72;;;;;;;12.86;95.78;101324.47;5073439;28;20056;-46
2023/07/12 09:11:03;;;;;;;7.90;3.53;;;;;;;12.88;95.24;101319.69;5073075;28;20025;-47
2023/07/12 09:13:35;;;;;;;9.82;4.05;;;;;;;12.93;94.62;101322.59;5079909;28;20052;-49
2023/07/12 09:16:02;;;;;;;10.85;3.60;;;;;;;12.89;94.81;101327.56;5092678;28;20055;-49
2023/07/12 09:18:30;;;;;;;5.70;3.15;;;;;;;12.84;94.77;101322.00;5092953;28;20016;-49
2023/07/12 09:21:10;;;;;;;11.18;3.78;;;;;;;12.87;95.17;101326.94;5093006;28;20031;-45
2023/07/12 09:23:40;;;;;;;6.43;2.67;;;;;;;12.92;94.68;101324.44;5092607;28;20020;-46
2023/07/12 09:26:33;;;;;;;10.25;3.20;;;;;;;13.01;94.23;101321.56;5092773;28;20058;-49
2023/07/12 09:29:18;;;;;;;7.03;2.70;;;;;;;12.89;94.18;101314.13;5088424;28;20180;-49
2023/07/12 09:31:45;;;;;;;13.90;3.63;;;;;;;12.98;93.93;101319.28;5092397;28;20032;-48
2023/07/12 09:34:22;;;;;;;5.82;3.00;;;;;;;12.98;93.95;101327.34;5092506;28;20056;-49
2023/07/12 09:36:59;;;;;;;8.13;2.92;;;;;;;12.96;94.14;101316.81;5092380;28;20032;-45
2023/07/12 09:39:27;;;;;;;6.95;2.60;;;;;;;12.96;94.23;101314.13;5092684;28;20024;-48
2023/07/12 09:41:59;;;;;;;7.50;2.35;;;;;;;12.93;93.47;101320.72;5075060;28;20458;-45
2023/07/12 09:44:30;;;;;;;8.68;2.63;;;;;;;12.96;93.37;101314.13;5093217;28;20051;-48
2023/07/12 09:47:34;;;;;;;3.85;2.20;;;;;;;12.99;92.71;101312.84;5092627;28;20047;-48
2023/07/12 09:50:06;;;;;;;6.55;2.58;;;;;;;13.04;92.54;101311.19;5092265;28;20028;-47
2023/07/12 09:52:46;;;;;;;9.00;3.08;;;;;;;12.97;93.13;101312.25;5092574;28;20078;-46
2023/07/12 09:55:51;;;;;;;11.07;3.10;;;;;;;12.93;93.79;101303.78;5091058;28;20045;-45
2023/07/12 09:58:24;;;;;;;11.73;3.25;;;;;;;13.06;93.68;101302.94;5077077;28;20031;-48
2023/07/12 10:01:00;;;;;;;9.85;2.72;;;;;;;12.93;94.08;101301.91;5074631;28;20111;-45
2023/07/12 10:03:36;;;;;;;6.15;2.55;;;;;;;12.97;93.89;101306.88;5072272;28;20044;-46
2023/07/12 10:06:29;;;;;;;8.57;2.08;;;;;;;13.05;93.50;101307.50;5071910;28;20698;-49
2023/07/12 10:09:06;;;;;;;9.80;2.83;;;;;;;13.18;92.71;101307.44;5072209;28;20025;-48
2023/07/12 10:11:38;;;;;;;6.80;2.58;;;;;;;13.05;92.85;101309.34;5078555;28;20078;-48
2023/07/12 10:14:09;;;;;;;4.57;2.25;;;;;;;12.98;93.53;101311.22;5092158;28;20497;-47
2023/07/12 10:16:49;;;;;;;5.63;2.47;;;;;;;13.03;92.97;101308.72;5092160;28;20028;-47
2023/07/12 10:19:26;;;;;;;6.07;2.60;;;;;;;12.92;93.56;101313.69;5092263;28;20104;-48
2023/07/12 10:21:57;;;;;;;5.43;2.40;;;;;;;12.96;93.00;101319.50;5092404;28;20023;-49
2023/07/12 10:24:35;;;;;;;5.65;2.00;;;;;;;12.88;93.21;101311.63;5082572;28;20024;-50
2023/07/12 10:27:06;;;;;;;9.00;2.13;;;;;;;12.90;93.03;101310.41;5091419;28;20034;-48
2023/07/12 10:29:45;;;;;;;6.93;1.85;;;;;;;12.94;92.99;101308.16;5088814;28;20056;-49
2023/07/12 10:32:23;;;;;;;7.88;2.75;;;;;;;12.98;93.81;101313.91;5079401;28;20457;-45
2023/07/12 10:35:04;;;;;;;6.10;2.45;;;;;;;12.94;94.29;101314.34;5071868;28;20024;-46
2023/07/12 10:37:44;;;;;;;6.57;2.20;;;;;;;12.86;94.79;101306.47;5071390;28;20059;-48
2023/07/12 10:40:19;;;;;;;6.20;2.28;;;;;;;12.82;95.24;101307.94;5072054;28;20039;-46
2023/07/12 10:42:51;;;;;;;8.77;2.43;;;;;;;12.85;94.85;101306.69;5071679;28;20025;-46
2023/07/12 10:45:46;;;;;;;8.63;2.80;;;;;;;12.90;94.54;101309.59;5071963;28;20265;-49
2023/07/12 10:48:22;;;;;;;6.60;2.38;;;;;;;12.90;93.80;101310.41;5085913;28;20506;-45
2023/07/12 10:50:50;;;;;;;5.25;1.90;;;;;;;12.85;93.57;101318.28;5091760;28;20486;-47
2023/07/12 10:53:27;;;;;;;4.72;1.90;;;;;;;12.82;93.71;101317.84;5088762;28;20549;-46
2023/07/12 10:56:08;;;;;;;5.07;1.80;;;;;;;12.81;93.82;101333.16;5089234;28;20382;-47
2023/07/12 10:58:58;;;;;;;5.95;2.10;;;;;;;12.88;93.99;101333.13;5091617;28;20055;-49
2023/07/12 11:01:43;;;;;;;5.28;1.88;;;;;;;12.82;94.02;101329.41;5090499;28;20412;-45
2023/07/12 11:04:33;;;;;;;5.20;1.98;;;;;;;12.81;94.12;101327.78;5078840;28;20048;-49
2023/07/12 11:07:25;;;;;;;5.57;2.13;;;;;;;12.92;93.38;101319.06;5071415;28;20047;-48
2023/07/12 11:09:51;;;;;;;6.20;2.63;;;;;;;12.91;93.62;101330.03;5073654;28;20041;-47
2023/07/12 11:12:29;;;;;;;6.20;2.30;;;;;;;12.97;93.29;101318.44;5078168;28;20062;-47
2023/07/12 11:15:04;;;;;;;4.43;2.10;;;;;;;12.97;93.03;101320.31;5077931;28;20020;-49
2023/07/12 11:17:47;;;;;;;;;;;;;;;12.85;93.65;101312.06;5091697;28;20047;-47
2023/07/12 11:20:25;;;;;;;8.15;2.75;;;;;;;12.80;94.09;101317.25;5091159;28;20396;-44
2023/07/12 11:23:02;;;;;;;5.32;2.30;;;;;;;12.85;94.10;101318.28;5090176;28;20028;-49
2023/07/12 11:25:57;;;;;;;8.05;2.60;;;;;;;12.91;93.79;101317.44;5089081;28;20030;-47
2023/07/12 11:28:23;;;;;;;6.32;2.50;;;;;;;12.87;93.71;101324.25;5077882;28;20146;-47
2023/07/12 11:31:34;;;;;;;6.30;2.40;;;;;;;12.89;93.16;101326.75;5085109;28;20490;-46
2023/07/12 11:34:25;;;;;;;5.60;2.30;;;;;;;12.81;92.91;101327.78;5094992;28;20368;-49